createdAt,value
2017-08-19T00:00:47.688Z,100625.16
2017-08-19T00:03:21.173Z,100625.45
2017-08-19T00:05:57.007Z,100622.30
2017-08-19T00:08:34.155Z,100620.67
2017-08-19T00:11:09.672Z,100618.14
2017-08-19T00:13:44.949Z,100610.74
2017-08-19T00:16:24.403Z,100616.87
2017-08-19T00:18:59.905Z,100611.39
2017-08-19T00:21:32.499Z,100615.75
2017-08-19T00:24:13.144Z,100607.45
2017-08-19T00:26:50.456Z,100614.17
2017-08-19T00:32:14.476Z,100616.95
2017-08-19T00:34:52.882Z,100617.29
2017-08-19T00:37:33.205Z,100619.23
2017-08-19T00:40:18.409Z,100617.38
2017-08-19T00:42:53.604Z,100618.59
2017-08-19T00:45:29.396Z,100618.35
2017-08-19T00:48:07.431Z,100619.48
2017-08-19T00:50:45.472Z,100612.30
2017-08-19T00:53:23.576Z,100612.73
2017-08-19T00:55:57.235Z,100610.97
2017-08-19T00:58:32.438Z,100604.70
2017-08-19T01:01:06.802Z,100606.62
2017-08-19T01:03:47.359Z,100596.85
2017-08-19T01:06:29.653Z,100589.52
2017-08-19T01:09:04.919Z,100592.61
2017-08-19T01:11:40.503Z,100597.44
2017-08-19T01:14:15.393Z,100600.59
2017-08-19T01:16:49.682Z,100603.57
2017-08-19T01:19:31.352Z,100608.05
2017-08-19T01:22:09.448Z,100608.36
2017-08-19T01:24:48.559Z,100602.51
2017-08-19T01:27:26.914Z,100611.08
2017-08-19T01:30:01.560Z,100613.76
2017-08-19T01:32:41.994Z,100604.44
2017-08-19T01:35:17.377Z,100608.91
2017-08-19T01:37:58.014Z,100605.33
2017-08-19T01:40:39.188Z,100608.66
2017-08-19T01:43:16.855Z,100622.48
2017-08-19T01:46:00.054Z,100623.48
2017-08-19T01:48:33.030Z,100621.08
2017-08-19T01:51:08.102Z,100627.13
2017-08-19T01:53:42.696Z,100638.27
2017-08-19T01:56:22.922Z,100644.13
2017-08-19T01:58:58.002Z,100648.20
2017-08-19T02:01:29.677Z,100656.11
2017-08-19T02:04:01.872Z,100661.00
2017-08-19T02:06:33.173Z,100666.49
2017-08-19T02:09:05.501Z,100671.55
2017-08-19T02:11:36.827Z,100667.28
2017-08-19T02:14:09.879Z,100664.08
2017-08-19T02:16:41.642Z,100664.20
2017-08-19T02:19:12.968Z,100668.11
2017-08-19T02:21:44.735Z,100666.25
2017-08-19T02:24:16.162Z,100660.77
2017-08-19T02:26:47.473Z,100651.47
2017-08-19T02:29:19.124Z,100658.08
2017-08-19T02:31:51.361Z,100656.45
2017-08-19T02:34:22.816Z,100653.33
2017-08-19T02:36:55.665Z,100656.88
2017-08-19T02:39:27.015Z,100665.03
2017-08-19T02:41:59.061Z,100662.48
2017-08-19T02:44:31.752Z,100666.67
2017-08-19T02:47:03.508Z,100662.06
2017-08-19T02:49:34.867Z,100666.13
2017-08-19T02:52:06.364Z,100661.52
2017-08-19T02:54:37.993Z,100667.00
2017-08-19T02:57:09.355Z,100664.34
2017-08-19T02:59:40.739Z,100658.73
2017-08-19T03:02:14.012Z,100663.22
2017-08-19T03:04:45.357Z,100666.83
2017-08-19T03:07:16.689Z,100669.81
2017-08-19T03:09:48.564Z,100670.52
2017-08-19T03:12:20.100Z,100668.20
2017-08-19T03:14:52.756Z,100682.72
2017-08-19T03:17:24.111Z,100687.39
2017-08-19T03:19:57.010Z,100687.64
2017-08-19T03:22:28.381Z,100693.12
2017-08-19T03:24:59.722Z,100688.84
2017-08-19T03:27:31.063Z,100694.45
2017-08-19T03:30:03.285Z,100690.38
2017-08-19T03:32:34.953Z,100705.84
2017-08-19T03:35:07.758Z,100702.16
2017-08-19T03:37:39.100Z,100705.88
2017-08-19T03:40:12.365Z,100715.25
2017-08-19T03:42:43.699Z,100719.36
2017-08-19T03:45:14.996Z,100724.24
2017-08-19T03:47:46.342Z,100725.48
2017-08-19T03:50:18.155Z,100732.05
2017-08-19T03:52:49.604Z,100728.00
2017-08-19T03:55:20.916Z,100727.22
2017-08-19T03:57:52.309Z,100735.94
2017-08-19T04:00:24.007Z,100746.16
2017-08-19T04:02:56.252Z,100738.95
2017-08-19T04:05:27.590Z,100741.45
2017-08-19T04:07:58.997Z,100744.00
2017-08-19T04:10:30.315Z,100738.59
2017-08-19T04:13:01.732Z,100741.52
2017-08-19T04:15:33.065Z,100740.49
2017-08-19T04:18:07.640Z,100740.53
2017-08-19T04:20:39.035Z,100740.20
2017-08-19T04:23:10.380Z,100737.25
2017-08-19T04:25:42.140Z,100731.35
2017-08-19T04:28:13.740Z,100727.09
2017-08-19T04:30:45.064Z,100729.44
2017-08-19T04:33:16.868Z,100734.45
2017-08-19T04:35:48.176Z,100735.69
2017-08-19T04:38:19.698Z,100738.04
2017-08-19T04:40:52.046Z,100740.86
2017-08-19T04:43:23.554Z,100745.65
2017-08-19T04:45:56.158Z,100751.27
2017-08-19T04:48:27.484Z,100746.48
2017-08-19T04:50:59.179Z,100752.48
2017-08-19T04:53:30.474Z,100755.24
2017-08-19T04:56:02.456Z,100752.20
2017-08-19T04:58:34.156Z,100752.79
2017-08-19T05:01:05.494Z,100754.77
2017-08-19T05:03:36.824Z,100749.55
2017-08-19T05:06:08.470Z,100749.04
2017-08-19T05:08:40.173Z,100748.14
2017-08-19T05:11:11.529Z,100752.28
2017-08-19T05:13:42.871Z,100750.80
2017-08-19T05:16:16.420Z,100753.48
2017-08-19T05:18:47.799Z,100764.28
2017-08-19T05:21:19.128Z,100767.05
2017-08-19T05:23:51.058Z,100766.35
2017-08-19T05:26:22.574Z,100768.80
2017-08-19T05:28:55.342Z,100772.16
2017-08-19T05:31:26.996Z,100777.02
2017-08-19T05:33:59.855Z,100768.36
2017-08-19T05:36:31.391Z,100778.94
2017-08-19T05:39:03.729Z,100771.56
2017-08-19T05:41:35.305Z,100773.52
2017-08-19T05:44:08.104Z,100771.32
2017-08-19T05:46:39.489Z,100782.00
2017-08-19T05:49:11.223Z,100779.75
2017-08-19T05:51:42.605Z,100778.84
2017-08-19T05:54:14.625Z,100775.87
2017-08-19T05:56:46.043Z,100769.87
2017-08-19T05:59:17.471Z,100768.00
2017-08-19T06:01:49.474Z,100775.63
2017-08-19T06:04:21.924Z,100780.79
2017-08-19T06:06:54.235Z,100783.67
2017-08-19T06:09:25.579Z,100791.27
2017-08-19T06:11:57.457Z,100794.13
2017-08-19T06:14:28.956Z,100801.82
2017-08-19T06:17:00.447Z,100801.84
2017-08-19T06:19:32.153Z,100805.67
2017-08-19T06:22:05.923Z,100806.56
2017-08-19T06:24:37.264Z,100813.34
2017-08-19T06:27:08.686Z,100818.36
2017-08-19T06:29:40.508Z,100821.97
2017-08-19T06:32:12.172Z,100825.81
2017-08-19T06:34:43.614Z,100826.69
2017-08-19T06:37:15.238Z,100819.67
2017-08-19T06:39:46.597Z,100824.33
2017-08-19T06:42:18.088Z,100821.55
2017-08-19T06:44:49.800Z,100819.03
2017-08-19T06:47:21.113Z,100825.58
2017-08-19T06:49:53.937Z,100829.09
2017-08-19T06:52:25.787Z,100829.54
2017-08-19T06:54:57.167Z,100839.49
2017-08-19T06:57:28.541Z,100839.06
2017-08-19T07:00:00.918Z,100838.48
2017-08-19T07:02:32.300Z,100841.54
2017-08-19T07:05:04.941Z,100845.74
2017-08-19T07:07:36.276Z,100850.62
2017-08-19T07:10:07.807Z,100853.17
2017-08-19T07:12:39.125Z,100860.59
2017-08-19T07:15:10.605Z,100856.05
2017-08-19T07:17:42.234Z,100857.64
2017-08-19T07:20:13.655Z,100854.44
2017-08-19T07:22:44.969Z,100852.75
2017-08-19T07:25:16.785Z,100861.19
2017-08-19T07:27:48.824Z,100856.53
2017-08-19T07:30:20.455Z,100864.84
2017-08-19T07:32:56.529Z,100867.39
2017-08-19T07:35:28.123Z,100879.05
2017-08-19T07:38:00.446Z,100873.36
2017-08-19T07:40:37.918Z,100879.77
2017-08-19T07:43:09.952Z,100873.94
2017-08-19T07:45:41.582Z,100877.34
2017-08-19T07:48:18.504Z,100873.82
2017-08-19T07:50:52.504Z,100866.09
2017-08-19T07:53:24.227Z,100862.91
2017-08-19T07:55:57.359Z,100870.80
2017-08-19T07:58:29.514Z,100868.43
2017-08-19T08:01:01.129Z,100871.37
2017-08-19T08:03:33.657Z,100872.67
2017-08-19T08:06:07.240Z,100867.30
2017-08-19T08:08:38.907Z,100867.03
2017-08-19T08:11:10.278Z,100862.03
2017-08-19T08:13:41.621Z,100867.08
2017-08-19T08:16:15.155Z,100872.35
2017-08-19T08:18:46.741Z,100874.69
2017-08-19T08:21:18.399Z,100879.89
2017-08-19T08:23:54.019Z,100879.66
2017-08-19T08:26:25.783Z,100883.30
2017-08-19T08:28:57.891Z,100884.77
2017-08-19T08:31:29.287Z,100878.91
2017-08-19T08:34:01.275Z,100881.42
2017-08-19T08:36:32.764Z,100880.11
2017-08-19T08:39:05.261Z,100878.63
2017-08-19T08:41:36.983Z,100871.97
2017-08-19T08:44:10.711Z,100876.95
2017-08-19T08:46:42.507Z,100867.41
2017-08-19T08:49:17.207Z,100879.22
2017-08-19T08:51:48.693Z,100870.76
2017-08-19T08:54:21.172Z,100879.21
2017-08-19T08:56:57.072Z,100885.34
2017-08-19T08:59:29.276Z,100884.94
2017-08-19T09:02:00.786Z,100876.13
2017-08-19T09:04:33.028Z,100876.33
2017-08-19T09:07:04.879Z,100868.66
2017-08-19T09:09:36.336Z,100877.22
2017-08-19T09:12:09.767Z,100870.89
2017-08-19T09:14:41.570Z,100870.67
2017-08-19T09:17:13.106Z,100871.04
2017-08-19T09:19:44.788Z,100869.77
2017-08-19T09:22:16.580Z,100859.87
2017-08-19T09:24:47.971Z,100859.15
2017-08-19T09:27:19.602Z,100861.48
2017-08-19T09:29:51.091Z,100864.27
2017-08-19T09:32:22.590Z,100863.31
2017-08-19T09:34:56.764Z,100866.89
2017-08-19T09:37:28.470Z,100860.25
2017-08-19T09:40:01.086Z,100865.78
2017-08-19T09:42:32.558Z,100870.06
2017-08-19T09:45:04.800Z,100870.06
2017-08-19T09:47:36.542Z,100870.38
2017-08-19T09:50:09.109Z,100867.75
2017-08-19T09:52:40.998Z,100871.39
2017-08-19T09:55:12.391Z,100864.11
2017-08-19T09:57:43.718Z,100866.30
2017-08-19T10:00:17.874Z,100859.59
2017-08-19T10:02:49.393Z,100857.38
2017-08-19T10:05:21.074Z,100862.27
2017-08-19T10:07:55.531Z,100858.19
2017-08-19T10:10:35.538Z,100861.96
2017-08-19T10:13:07.188Z,100864.87
2017-08-19T10:15:38.629Z,100862.66
2017-08-19T10:18:12.049Z,100856.56
2017-08-19T10:20:43.404Z,100865.44
2017-08-19T10:23:14.773Z,100865.23
2017-08-19T10:25:46.467Z,100872.08
2017-08-19T10:28:17.966Z,100865.59
2017-08-19T10:30:49.292Z,100879.60
2017-08-19T10:33:20.952Z,100873.55
2017-08-19T10:35:55.616Z,100876.03
2017-08-19T10:38:28.421Z,100873.63
2017-08-19T10:40:59.818Z,100874.45
2017-08-19T10:43:31.181Z,100878.47
2017-08-19T10:46:06.920Z,100872.19
2017-08-19T10:48:38.331Z,100871.64
2017-08-19T10:51:09.719Z,100867.54
2017-08-19T10:53:41.364Z,100862.16
2017-08-19T10:56:16.394Z,100863.81
2017-08-19T10:58:48.053Z,100863.32
2017-08-19T11:01:19.389Z,100860.31
2017-08-19T11:03:52.424Z,100853.02
2017-08-19T11:06:24.147Z,100849.38
2017-08-19T11:08:56.583Z,100851.83
2017-08-19T11:11:28.294Z,100850.02
2017-08-19T11:14:01.572Z,100852.62
2017-08-19T11:16:34.615Z,100855.61
2017-08-19T11:19:06.355Z,100841.63
2017-08-19T11:21:38.531Z,100842.06
2017-08-19T11:24:11.123Z,100848.59
2017-08-19T11:26:42.978Z,100846.38
2017-08-19T11:29:14.299Z,100852.12
2017-08-19T11:31:45.641Z,100848.97
2017-08-19T11:34:17.402Z,100843.52
2017-08-19T11:36:48.736Z,100849.39
2017-08-19T11:39:20.059Z,100841.78
2017-08-19T11:41:52.316Z,100841.63
2017-08-19T11:44:24.295Z,100841.82
2017-08-19T11:46:56.852Z,100848.58
2017-08-19T11:49:28.836Z,100848.11
2017-08-19T11:52:00.412Z,100828.77
2017-08-19T11:54:31.875Z,100845.28
2017-08-19T11:57:03.699Z,100833.53
2017-08-19T11:59:35.003Z,100837.86
2017-08-19T12:02:08.397Z,100841.77
2017-08-19T12:04:40.392Z,100840.10
2017-08-19T12:07:11.771Z,100834.63
2017-08-19T12:09:43.134Z,100840.66
2017-08-19T12:12:15.970Z,100833.67
2017-08-19T12:14:47.333Z,100837.40
2017-08-19T12:17:18.766Z,100830.41
2017-08-19T12:19:51.588Z,100831.19
2017-08-19T12:22:23.258Z,100830.13
2017-08-19T12:24:55.943Z,100833.71
2017-08-19T12:27:27.264Z,100841.69
2017-08-19T12:29:59.529Z,100828.33
2017-08-19T12:32:31.192Z,100829.91
2017-08-19T12:35:02.989Z,100831.55
2017-08-19T12:40:35.308Z,100824.31
2017-08-19T12:43:06.806Z,100825.03
2017-08-19T12:45:38.201Z,100822.67
2017-08-19T12:48:10.299Z,100814.99
2017-08-19T12:50:42.259Z,100817.24
2017-08-19T12:53:14.249Z,100817.21
2017-08-19T12:55:46.028Z,100832.52
2017-08-19T12:58:17.460Z,100826.56
2017-08-19T13:00:48.778Z,100827.44
2017-08-19T13:03:20.387Z,100831.65
2017-08-19T13:05:51.889Z,100815.48
2017-08-19T13:08:23.337Z,100823.25
2017-08-19T13:10:56.736Z,100823.48
2017-08-19T13:13:28.093Z,100812.31
2017-08-19T13:15:59.486Z,100820.12
2017-08-19T13:18:31.228Z,100819.23
2017-08-19T13:21:02.861Z,100809.77
2017-08-19T13:23:35.304Z,100813.31
2017-08-19T13:26:07.087Z,100812.87
2017-08-19T13:28:38.439Z,100817.66
2017-08-19T13:31:09.820Z,100812.90
2017-08-19T13:33:41.142Z,100813.74
2017-08-19T13:36:13.179Z,100810.13
2017-08-19T13:38:44.513Z,100806.91
2017-08-19T13:41:16.002Z,100809.41
2017-08-19T13:43:47.617Z,100816.31
2017-08-19T13:46:19.778Z,100812.52
2017-08-19T13:48:51.249Z,100815.80
2017-08-19T13:51:22.844Z,100813.08
2017-08-19T13:53:55.270Z,100809.29
2017-08-19T13:56:26.597Z,100813.17
2017-08-19T13:58:58.606Z,100815.37
2017-08-19T14:01:29.933Z,100811.39
2017-08-19T14:04:02.903Z,100816.02
2017-08-19T14:06:34.571Z,100809.99
2017-08-19T14:09:06.027Z,100820.53
2017-08-19T14:11:37.373Z,100817.54
2017-08-19T14:14:09.058Z,100821.69
2017-08-19T14:16:40.494Z,100821.58
2017-08-19T14:19:11.838Z,100822.81
2017-08-19T14:21:43.796Z,100828.70
2017-08-19T14:24:15.296Z,100820.90
2017-08-19T14:26:46.913Z,100821.96
2017-08-19T14:29:18.222Z,100832.41
2017-08-19T14:31:50.214Z,100820.60
2017-08-19T14:34:21.939Z,100835.56
2017-08-19T14:36:54.713Z,100825.53
2017-08-19T14:39:26.071Z,100827.83
2017-08-19T14:41:58.424Z,100821.55
2017-08-19T14:44:29.784Z,100828.33
2017-08-19T14:47:01.365Z,100820.52
2017-08-19T14:49:33.031Z,100813.20
2017-08-19T14:52:05.645Z,100816.63
2017-08-19T14:54:37.252Z,100832.84
2017-08-19T14:57:09.415Z,100829.58
2017-08-19T14:59:41.331Z,100826.52
2017-08-19T15:02:13.538Z,100816.80
2017-08-19T15:04:45.218Z,100828.17
2017-08-19T15:07:17.078Z,100814.64
2017-08-19T15:09:51.746Z,100830.66
2017-08-19T15:12:24.449Z,100830.84
2017-08-19T15:14:56.482Z,100823.91
2017-08-19T15:17:27.802Z,100826.30
2017-08-19T15:19:59.535Z,100821.13
2017-08-19T15:22:30.889Z,100821.98
2017-08-19T15:25:02.729Z,100823.98
2017-08-19T15:27:34.162Z,100824.75
2017-08-19T15:30:07.009Z,100823.00
2017-08-19T15:32:38.752Z,100831.73
2017-08-19T15:35:10.134Z,100820.30
2017-08-19T15:37:41.505Z,100830.39
2017-08-19T15:40:13.983Z,100823.91
2017-08-19T15:42:45.359Z,100825.67
2017-08-19T15:45:16.740Z,100828.05
2017-08-19T15:47:50.249Z,100822.80
2017-08-19T15:50:21.652Z,100825.55
2017-08-19T15:52:54.353Z,100823.42
2017-08-19T15:55:25.997Z,100823.55
2017-08-19T15:57:57.376Z,100820.64
2017-08-19T16:00:28.992Z,100815.48
2017-08-19T16:03:00.634Z,100806.98
2017-08-19T16:05:31.988Z,100813.66
2017-08-19T16:08:04.554Z,100813.63
2017-08-19T16:10:36.168Z,100812.33
2017-08-19T16:13:07.667Z,100803.16
2017-08-19T16:15:39.043Z,100804.42
2017-08-19T16:18:12.037Z,100804.77
2017-08-19T16:20:43.421Z,100811.48
2017-08-19T16:23:15.463Z,100804.06
2017-08-19T16:25:47.333Z,100810.37
2017-08-19T16:28:18.922Z,100803.72
2017-08-19T16:30:50.485Z,100806.78
2017-08-19T16:33:22.123Z,100805.84
2017-08-19T16:35:55.486Z,100800.08
2017-08-19T16:38:26.910Z,100805.01
2017-08-19T16:40:58.766Z,100810.91
2017-08-19T16:43:30.194Z,100814.97
2017-08-19T16:46:03.468Z,100809.83
2017-08-19T16:48:35.145Z,100814.13
2017-08-19T16:51:06.916Z,100812.27
2017-08-19T16:53:38.442Z,100818.55
2017-08-19T16:56:11.392Z,100811.67
2017-08-19T16:58:42.807Z,100811.13
2017-08-19T17:01:14.212Z,100813.00
2017-08-19T17:03:45.817Z,100823.84
2017-08-19T17:06:17.882Z,100821.14
2017-08-19T17:08:49.229Z,100834.13
2017-08-19T17:11:21.411Z,100839.80
2017-08-19T17:13:54.009Z,100840.11
2017-08-19T17:16:25.437Z,100838.20
2017-08-19T17:18:57.968Z,100842.82
2017-08-19T17:21:29.403Z,100842.50
2017-08-19T17:24:00.807Z,100854.16
2017-08-19T17:26:32.650Z,100861.83
2017-08-19T17:29:04.393Z,100867.73
2017-08-19T17:31:36.202Z,100862.20
2017-08-19T17:34:09.406Z,100868.84
2017-08-19T17:36:40.757Z,100870.44
2017-08-19T17:39:12.452Z,100877.16
2017-08-19T17:41:44.088Z,100882.20
2017-08-19T17:44:15.640Z,100878.98
2017-08-19T17:46:47.007Z,100886.69
2017-08-19T17:49:18.485Z,100890.95
2017-08-19T17:51:50.062Z,100885.03
2017-08-19T17:54:22.159Z,100897.41
2017-08-19T17:56:54.694Z,100891.41
2017-08-19T17:59:26.350Z,100898.39
2017-08-19T18:01:58.632Z,100899.44
2017-08-19T18:04:29.983Z,100901.75
2017-08-19T18:07:01.753Z,100901.28
2017-08-19T18:09:33.347Z,100900.20
2017-08-19T18:12:09.511Z,100906.00
2017-08-19T18:14:41.175Z,100905.54
2017-08-19T18:17:12.785Z,100908.92
2017-08-19T18:19:44.494Z,100906.62
2017-08-19T18:22:16.346Z,100914.56
2017-08-19T18:24:47.659Z,100924.69
2017-08-19T18:27:19.292Z,100922.02
2017-08-19T18:29:50.671Z,100923.84
2017-08-19T18:32:22.076Z,100925.81
2017-08-19T18:34:56.374Z,100924.31
2017-08-19T18:37:27.813Z,100929.41
2017-08-19T18:39:59.192Z,100937.33
2017-08-19T18:42:31.828Z,100941.53
2017-08-19T18:45:03.819Z,100945.08
2017-08-19T18:47:35.546Z,100948.33
2017-08-19T18:50:08.927Z,100954.10
2017-08-19T18:52:40.259Z,100953.56
2017-08-19T18:55:12.055Z,100951.84
2017-08-19T18:57:43.387Z,100957.79
2017-08-19T19:00:15.441Z,100960.23
2017-08-19T19:02:46.771Z,100957.57
2017-08-19T19:05:18.262Z,100958.04
2017-08-19T19:07:49.912Z,100962.21
2017-08-19T19:10:22.438Z,100960.66
2017-08-19T19:12:56.186Z,100965.87
2017-08-19T19:15:27.556Z,100967.63
2017-08-19T19:17:58.884Z,100967.22
2017-08-19T19:20:30.837Z,100969.73
2017-08-19T19:23:02.805Z,100968.70
2017-08-19T19:25:34.274Z,100969.97
2017-08-19T19:28:08.185Z,100977.98
2017-08-19T19:30:39.891Z,100982.29
2017-08-19T19:33:11.463Z,100980.36
2017-08-19T19:35:42.830Z,100978.36
2017-08-19T19:38:16.845Z,100990.77
2017-08-19T19:40:48.360Z,100989.78
2017-08-19T19:43:20.823Z,100991.57
2017-08-19T19:45:56.230Z,100996.49
2017-08-19T19:48:28.282Z,100997.31
2017-08-19T19:51:02.067Z,100995.44
2017-08-19T19:53:34.534Z,100998.02
2017-08-19T19:56:11.917Z,101002.97
2017-08-19T19:58:43.357Z,101005.75
2017-08-19T20:01:14.938Z,101003.02
2017-08-19T20:03:46.805Z,101004.33
2017-08-19T20:06:18.900Z,101003.75
2017-08-19T20:08:50.648Z,101007.45
2017-08-19T20:11:22.831Z,101012.17
2017-08-19T20:13:56.531Z,101011.84
2017-08-19T20:16:28.350Z,101019.09
2017-08-19T20:18:59.687Z,101017.64
2017-08-19T20:21:31.604Z,101017.73
2017-08-19T20:24:06.237Z,101014.52
2017-08-19T20:26:37.644Z,101014.62
2017-08-19T20:29:09.453Z,101020.37
2017-08-19T20:31:40.787Z,101024.58
2017-08-19T20:34:18.917Z,101027.14
2017-08-19T20:36:50.514Z,101033.03
2017-08-19T20:39:22.497Z,101041.17
2017-08-19T20:41:56.477Z,101046.63
2017-08-19T20:44:28.893Z,101052.94
2017-08-19T20:47:02.148Z,101048.41
2017-08-19T20:49:33.683Z,101053.06
2017-08-19T20:52:07.189Z,101059.36
2017-08-19T20:54:38.523Z,101063.17
2017-08-19T20:57:10.063Z,101056.39
2017-08-19T20:59:41.869Z,101060.11
2017-08-19T21:02:15.609Z,101056.97
2017-08-19T21:04:47.295Z,101051.44
2017-08-19T21:07:18.688Z,101055.05
2017-08-19T21:09:50.057Z,101052.34
2017-08-19T21:12:22.774Z,101056.77
2017-08-19T21:14:55.401Z,101057.56
2017-08-19T21:17:26.756Z,101054.09
2017-08-19T21:19:58.858Z,101056.42
2017-08-19T21:22:30.571Z,101057.86
2017-08-19T21:25:02.872Z,101059.70
2017-08-19T21:27:34.218Z,101058.75
2017-08-19T21:30:08.600Z,101056.41
2017-08-19T21:32:40.084Z,101059.16
2017-08-19T21:35:12.167Z,101059.72
2017-08-19T21:37:44.212Z,101058.19
2017-08-19T21:40:18.563Z,101064.47
2017-08-19T21:42:50.491Z,101068.78
2017-08-19T21:45:21.866Z,101067.20
2017-08-19T21:47:53.730Z,101074.23
2017-08-19T21:50:25.492Z,101073.56
2017-08-19T21:52:57.666Z,101074.75
2017-08-19T21:55:29.237Z,101075.59
2017-08-19T21:58:00.874Z,101075.95
2017-08-19T22:00:32.827Z,101077.17
2017-08-19T22:03:04.539Z,101074.70
2017-08-19T22:05:36.014Z,101075.18
2017-08-19T22:08:09.278Z,101074.11
2017-08-19T22:10:40.634Z,101068.66
2017-08-19T22:13:12.240Z,101070.94
2017-08-19T22:15:43.593Z,101063.03
2017-08-19T22:18:15.719Z,101065.75
2017-08-19T22:20:47.445Z,101063.70
2017-08-19T22:23:19.088Z,101061.14
2017-08-19T22:25:50.542Z,101064.45
2017-08-19T22:28:22.668Z,101063.63
2017-08-19T22:30:56.079Z,101065.16
2017-08-19T22:33:27.638Z,101059.28
2017-08-19T22:35:59.702Z,101059.70
2017-08-19T22:38:31.089Z,101064.83
2017-08-19T22:41:02.665Z,101067.81
2017-08-19T22:43:34.376Z,101065.89
2017-08-19T22:46:08.206Z,101067.57
2017-08-19T22:48:39.612Z,101069.98
2017-08-19T22:51:11.303Z,101070.97
2017-08-19T22:53:43.519Z,101070.98
2017-08-19T22:56:17.309Z,101071.50
2017-08-19T22:58:48.733Z,101075.58
2017-08-19T23:01:20.185Z,101082.92
2017-08-19T23:03:51.887Z,101075.27
2017-08-19T23:06:23.238Z,101079.05
2017-08-19T23:08:56.269Z,101071.42
2017-08-19T23:11:27.618Z,101063.38
2017-08-19T23:13:59.376Z,101067.59
2017-08-19T23:16:30.709Z,101069.00
2017-08-19T23:19:02.325Z,101074.19
2017-08-19T23:21:34.035Z,101079.16
2017-08-19T23:24:07.609Z,101077.90
2017-08-19T23:26:39.399Z,101077.33
2017-08-19T23:29:10.726Z,101071.37
2017-08-19T23:31:42.039Z,101075.48
2017-08-19T23:34:14.265Z,101076.69
2017-08-19T23:36:45.588Z,101079.04
2017-08-19T23:39:16.916Z,101075.74
2017-08-19T23:41:48.607Z,101071.52
2017-08-19T23:44:20.041Z,101069.10
2017-08-19T23:46:51.859Z,101074.45
2017-08-19T23:49:23.288Z,101082.94
2017-08-19T23:51:55.855Z,101077.46
2017-08-19T23:54:27.789Z,101073.41
2017-08-19T23:56:59.107Z,101078.00
2017-08-19T23:59:30.441Z,101077.59
